Time;durP1;ratioP1;P1;durP2;ratioP2;P2;SDS_P1;SDS_P2;PMS_P1;PMS_P2;Temp;Humidity;BMP_temperature;BMP_pressure;BME280_temperature;BME280_humidity;BME280_pressure;Samples;Min_cycle;Max_cycle;Signal;HPM_P1;HPM_P2
2020/12/08 00:01:33;;;;;;;15.00;12.53;;;3.40;99.90;;;;;;5093622;28;20253;-70
2020/12/08 00:03:58;;;;;;;18.70;13.20;;;3.30;99.90;;;;;;5093703;28;20165;-70
2020/12/08 00:06:24;;;;;;;19.47;13.70;;;3.30;99.90;;;;;;5092555;28;20634;-70
2020/12/08 00:08:49;;;;;;;23.53;14.10;;;3.30;99.90;;;;;;5093277;28;20281;-70
2020/12/08 00:11:16;;;;;;;21.80;15.30;;;3.20;99.90;;;;;;5093517;28;20619;-70
2020/12/08 00:13:46;;;;;;;22.20;14.30;;;3.10;99.90;;;;;;5093372;28;20174;-70
2020/12/08 00:16:12;;;;;;;18.70;14.40;;;3.20;99.90;;;;;;5093920;28;20463;-70
2020/12/08 00:18:39;;;;;;;22.77;14.17;;;3.20;99.90;;;;;;5092259;28;20416;-70
2020/12/08 00:21:06;;;;;;;22.07;14.73;;;3.20;99.90;;;;;;5093404;28;20501;-70
2020/12/08 00:23:32;;;;;;;19.63;12.10;;;3.20;99.90;;;;;;5092794;28;20430;-70
2020/12/08 00:25:58;;;;;;;24.17;12.53;;;3.20;99.90;;;;;;5090482;28;20438;-71
2020/12/08 00:28:23;;;;;;;19.90;13.30;;;3.20;99.90;;;;;;5089955;28;20207;-70
2020/12/08 00:30:50;;;;;;;18.57;13.23;;;3.20;99.90;;;;;;5092341;28;20459;-71
2020/12/08 00:33:16;;;;;;;18.47;13.13;;;3.20;99.90;;;;;;5084257;28;20173;-70
2020/12/08 00:35:41;;;;;;;21.30;13.77;;;3.10;99.90;;;;;;5093372;28;20546;-70
2020/12/08 00:38:07;;;;;;;17.87;13.37;;;3.10;99.90;;;;;;5092973;28;20158;-70
2020/12/08 00:40:32;;;;;;;19.77;13.93;;;3.10;99.90;;;;;;5091189;28;20283;-70
2020/12/08 00:42:58;;;;;;;19.30;13.20;;;3.10;99.90;;;;;;5090095;28;20201;-70
2020/12/08 00:45:24;;;;;;;20.63;12.60;;;3.10;99.90;;;;;;5091864;28;20189;-70
2020/12/08 00:47:49;;;;;;;16.87;13.23;;;3.10;99.90;;;;;;5092295;28;20185;-70
2020/12/08 00:50:15;;;;;;;18.10;13.37;;;3.00;99.90;;;;;;5087107;28;20321;-70
2020/12/08 00:52:40;;;;;;;19.00;14.23;;;3.00;99.90;;;;;;5089095;28;20211;-70
2020/12/08 00:55:07;;;;;;;21.03;13.90;;;3.00;99.90;;;;;;5091514;28;20197;-70
2020/12/08 00:57:33;;;;;;;20.17;12.97;;;3.00;99.90;;;;;;5092331;28;20601;-70
2020/12/08 00:59:58;;;;;;;20.50;13.10;;;2.90;99.90;;;;;;5092125;28;20498;-70
2020/12/08 01:02:25;;;;;;;21.93;13.67;;;2.90;99.90;;;;;;5090853;28;20427;-70
2020/12/08 01:04:50;;;;;;;21.70;13.10;;;2.90;99.90;;;;;;5085472;28;20188;-70
2020/12/08 01:07:16;;;;;;;19.00;12.90;;;2.90;99.90;;;;;;5088446;28;20431;-70
2020/12/08 01:09:42;;;;;;;19.10;12.90;;;2.90;99.90;;;;;;5091445;28;20205;-70
2020/12/08 01:12:08;;;;;;;19.10;12.70;;;2.90;99.90;;;;;;5091347;28;20928;-70
2020/12/08 01:14:33;;;;;;;17.20;12.27;;;2.80;99.90;;;;;;5092334;28;20177;-70
2020/12/08 01:17:01;;;;;;;22.33;14.23;;;2.90;99.90;;;;;;5091814;28;20439;-70
2020/12/08 01:19:27;;;;;;;20.97;14.23;;;2.90;99.90;;;;;;5091977;28;20201;-70
2020/12/08 01:21:53;;;;;;;17.47;11.63;;;2.80;99.90;;;;;;5091005;28;20533;-70
2020/12/08 01:24:19;;;;;;;19.07;12.80;;;2.80;99.90;;;;;;5090312;28;20570;-70
2020/12/08 01:26:45;;;;;;;18.60;13.30;;;2.80;99.90;;;;;;5091745;28;20514;-70
2020/12/08 01:29:11;;;;;;;22.80;13.67;;;2.80;99.90;;;;;;5088743;28;20461;-70
2020/12/08 01:31:37;;;;;;;29.63;14.30;;;2.90;99.90;;;;;;5080775;28;20424;-70
2020/12/08 01:34:03;;;;;;;20.00;12.90;;;2.80;99.90;;;;;;5090281;28;20185;-70
2020/12/08 01:36:28;;;;;;;18.27;12.23;;;2.90;99.90;;;;;;5090788;28;20353;-70
2020/12/08 01:38:54;;;;;;;17.37;12.40;;;2.90;99.90;;;;;;5090123;28;20673;-70
2020/12/08 01:41:20;;;;;;;18.30;13.77;;;2.90;99.90;;;;;;5091524;28;20181;-71
2020/12/08 01:43:50;;;;;;;22.40;14.00;;;2.90;99.90;;;;;;5090292;28;20180;-71
2020/12/08 01:46:18;;;;;;;23.17;13.37;;;2.80;99.90;;;;;;5092338;28;20430;-70
2020/12/08 01:48:46;;;;;;;20.73;13.30;;;2.70;99.90;;;;;;5090311;28;20542;-70
2020/12/08 01:51:16;;;;;;;19.77;13.10;;;2.80;99.90;;;;;;5090318;28;20439;-70
2020/12/08 01:53:43;;;;;;;18.43;14.37;;;2.80;99.90;;;;;;5090605;28;20437;-70
2020/12/08 01:56:09;;;;;;;23.83;13.07;;;2.80;99.90;;;;;;5091007;28;20819;-71
2020/12/08 01:58:35;;;;;;;22.70;13.50;;;2.80;99.90;;;;;;5089886;28;20923;-70
2020/12/08 02:01:00;;;;;;;18.50;12.83;;;2.80;99.90;;;;;;5089784;28;20428;-70
2020/12/08 02:03:26;;;;;;;18.93;13.17;;;2.80;99.90;;;;;;5091449;28;20176;-70
2020/12/08 02:05:53;;;;;;;21.47;12.60;;;2.80;99.90;;;;;;5089746;28;20189;-70
2020/12/08 02:08:36;;;;;;;18.80;11.60;;;2.80;99.90;;;;;;5090680;28;20924;-70
2020/12/08 02:11:02;;;;;;;16.13;12.00;;;2.80;99.90;;;;;;5091104;28;20983;-70
2020/12/08 02:13:28;;;;;;;18.33;12.43;;;2.80;99.90;;;;;;5091439;28;20482;-70
2020/12/08 02:15:54;;;;;;;18.53;12.37;;;2.80;99.90;;;;;;5091801;28;20459;-70
2020/12/08 02:18:20;;;;;;;19.50;12.47;;;2.80;99.90;;;;;;5091257;28;20457;-70
2020/12/08 02:20:51;;;;;;;21.53;13.13;;;2.80;99.90;;;;;;5090633;28;20193;-70
2020/12/08 02:23:17;;;;;;;20.63;13.03;;;2.80;99.90;;;;;;5090338;28;20432;-70
2020/12/08 02:25:42;;;;;;;22.43;13.40;;;2.80;99.90;;;;;;5091450;28;20426;-70
2020/12/08 02:28:08;;;;;;;21.73;13.30;;;2.70;99.90;;;;;;5091116;28;20183;-70
2020/12/08 02:30:35;;;;;;;19.87;13.27;;;2.80;99.90;;;;;;5089436;28;20207;-70
2020/12/08 02:33:01;;;;;;;23.67;14.93;;;2.80;99.90;;;;;;5089866;28;20431;-70
2020/12/08 02:35:26;;;;;;;18.57;12.80;;;2.70;99.90;;;;;;5090324;28;20525;-70
2020/12/08 02:37:52;;;;;;;17.60;13.53;;;2.80;99.90;;;;;;5089252;28;20172;-70
2020/12/08 02:40:18;;;;;;;17.90;13.60;;;2.80;99.90;;;;;;5089521;28;20211;-70
2020/12/08 02:42:46;;;;;;;23.77;14.97;;;2.80;99.90;;;;;;5090214;28;20619;-70
2020/12/08 02:45:11;;;;;;;22.80;15.53;;;2.90;99.90;;;;;;5075936;28;20182;-70
2020/12/08 02:47:37;;;;;;;19.27;14.77;;;3.00;99.90;;;;;;5080535;28;20811;-70
2020/12/08 02:50:04;;;;;;;21.43;13.07;;;3.00;99.90;;;;;;5090166;28;20208;-70
2020/12/08 02:52:32;;;;;;;17.63;13.33;;;3.10;99.90;;;;;;5091197;28;20474;-70
2020/12/08 02:54:59;;;;;;;18.33;12.77;;;3.10;99.90;;;;;;5090229;28;20467;-70
2020/12/08 02:57:24;;;;;;;19.97;13.17;;;3.10;99.90;;;;;;5090732;28;20521;-71
2020/12/08 02:59:50;;;;;;;20.50;14.70;;;3.20;99.90;;;;;;5089928;28;20931;-70
2020/12/08 03:02:16;;;;;;;19.53;12.27;;;3.20;99.90;;;;;;5093766;28;20177;-70
2020/12/08 03:04:41;;;;;;;18.37;13.23;;;3.20;99.90;;;;;;5094719;28;20209;-70
2020/12/08 03:07:07;;;;;;;18.60;12.87;;;3.30;99.90;;;;;;5093628;28;20179;-70
2020/12/08 03:09:32;;;;;;;17.40;13.10;;;3.40;99.90;;;;;;5094179;28;20201;-70
2020/12/08 03:11:58;;;;;;;20.50;14.47;;;3.40;99.90;;;;;;5093816;28;20181;-70
2020/12/08 03:14:23;;;;;;;23.43;14.17;;;3.40;99.90;;;;;;5094404;28;20193;-70
2020/12/08 03:16:49;;;;;;;19.17;12.90;;;3.50;99.90;;;;;;5093734;28;20170;-70
2020/12/08 03:19:15;;;;;;;21.47;14.50;;;3.40;99.90;;;;;;5094105;28;20197;-70
2020/12/08 03:21:40;;;;;;;20.17;13.60;;;3.50;99.90;;;;;;5093831;28;20182;-70
2020/12/08 03:24:06;;;;;;;17.77;13.33;;;3.50;99.90;;;;;;5093985;28;20182;-70
2020/12/08 03:26:31;;;;;;;23.30;15.03;;;3.60;99.90;;;;;;5094107;28;20181;-70
2020/12/08 03:28:57;;;;;;;17.90;12.33;;;3.60;99.90;;;;;;5093037;28;20216;-70
2020/12/08 03:31:23;;;;;;;22.30;13.73;;;3.60;99.90;;;;;;5094114;28;20593;-70
2020/12/08 03:33:48;;;;;;;20.90;14.87;;;3.70;99.90;;;;;;5092578;28;20181;-70
2020/12/08 03:36:18;;;;;;;22.20;13.73;;;3.70;99.90;;;;;;5092631;28;20193;-70
2020/12/08 03:38:47;;;;;;;21.50;14.20;;;3.70;99.90;;;;;;5090881;28;20185;-70
2020/12/08 03:41:22;;;;;;;20.07;12.70;;;3.70;99.90;;;;;;5094607;28;20416;-70
2020/12/08 03:43:49;;;;;;;21.30;14.37;;;3.80;99.90;;;;;;5094365;28;20955;-70
2020/12/08 03:46:19;;;;;;;19.60;13.43;;;3.80;99.90;;;;;;5094666;28;20486;-70
2020/12/08 03:48:44;;;;;;;21.17;14.40;;;3.80;99.90;;;;;;5092541;28;20529;-70
2020/12/08 03:51:14;;;;;;;21.43;14.33;;;3.80;99.90;;;;;;5093892;28;21054;-70
2020/12/08 03:53:40;;;;;;;22.43;14.13;;;3.80;99.90;;;;;;5093378;28;20551;-70
2020/12/08 03:56:16;;;;;;;21.80;14.07;;;3.90;99.90;;;;;;5092750;28;20455;-70
2020/12/08 03:58:42;;;;;;;92.40;58.33;;;3.90;99.90;;;;;;5091207;28;20169;-71
2020/12/08 04:01:15;;;;;;;17.30;13.43;;;3.80;99.90;;;;;;5086242;28;20436;-70
2020/12/08 04:03:41;;;;;;;21.30;13.63;;;3.70;99.90;;;;;;5092784;28;20900;-70
2020/12/08 04:06:07;;;;;;;23.07;16.30;;;3.70;99.90;;;;;;5092665;28;20800;-70
2020/12/08 04:08:33;;;;;;;21.37;13.57;;;3.80;99.90;;;;;;5091279;28;20431;-70
2020/12/08 04:10:58;;;;;;;20.30;13.70;;;3.80;99.90;;;;;;5091804;28;20173;-70
2020/12/08 04:13:24;;;;;;;20.97;14.03;;;3.80;99.90;;;;;;5091644;28;20265;-70
2020/12/08 04:15:49;;;;;;;18.50;13.40;;;3.70;99.90;;;;;;5093371;28;20226;-70
2020/12/08 04:18:15;;;;;;;23.50;13.53;;;3.80;99.90;;;;;;5093484;28;20527;-70
2020/12/08 04:20:42;;;;;;;214.47;123.93;;;3.80;99.90;;;;;;5092920;28;20194;-70
2020/12/08 04:23:14;;;;;;;23.27;15.43;;;3.70;99.90;;;;;;5093260;28;20416;-70
2020/12/08 04:25:40;;;;;;;19.30;14.17;;;3.70;99.90;;;;;;5093657;28;20423;-70
2020/12/08 04:28:07;;;;;;;18.47;13.17;;;3.70;99.90;;;;;;5092035;28;20428;-70
2020/12/08 04:30:33;;;;;;;16.90;13.97;;;3.70;99.90;;;;;;5093009;28;20450;-71
2020/12/08 04:32:59;;;;;;;18.50;13.37;;;3.70;99.90;;;;;;5084952;28;20481;-70
2020/12/08 04:35:25;;;;;;;21.53;14.63;;;3.60;99.90;;;;;;5093265;28;20459;-70
2020/12/08 04:37:51;;;;;;;20.10;13.27;;;3.60;99.90;;;;;;5092977;28;20427;-70
2020/12/08 04:40:16;;;;;;;22.67;14.73;;;3.60;99.90;;;;;;5093008;28;20689;-70
2020/12/08 04:42:46;;;;;;;25.33;13.63;;;3.60;99.90;;;;;;5092004;28;20177;-70
2020/12/08 04:45:13;;;;;;;22.40;14.73;;;3.70;99.90;;;;;;5092620;28;20226;-70
2020/12/08 04:47:43;;;;;;;23.10;14.97;;;3.60;99.90;;;;;;5092743;28;20430;-70
2020/12/08 04:50:11;;;;;;;20.30;13.93;;;3.70;99.90;;;;;;5092621;28;20459;-70
2020/12/08 04:52:36;;;;;;;24.83;15.93;;;3.70;99.90;;;;;;5091229;28;20440;-70
2020/12/08 04:55:03;;;;;;;21.07;13.90;;;3.70;99.90;;;;;;5092200;28;21430;-70
2020/12/08 04:57:28;;;;;;;22.27;15.20;;;3.70;99.90;;;;;;5092622;28;20690;-70
2020/12/08 05:00:04;;;;;;;23.90;14.90;;;3.80;99.90;;;;;;5091470;28;20478;-70
2020/12/08 05:02:30;;;;;;;21.90;14.10;;;3.80;99.90;;;;;;5091968;28;20177;-70
2020/12/08 05:04:56;;;;;;;21.57;14.47;;;3.80;99.90;;;;;;5087723;28;20484;-70
2020/12/08 05:07:28;;;;;;;23.43;15.57;;;3.80;99.90;;;;;;5090081;28;20177;-70
2020/12/08 05:09:55;;;;;;;22.47;14.10;;;3.80;99.90;;;;;;5091450;28;20455;-70
2020/12/08 05:12:22;;;;;;;21.23;13.80;;;3.90;99.90;;;;;;5091204;28;20435;-70
2020/12/08 05:14:48;;;;;;;17.97;13.40;;;4.00;99.90;;;;;;5092027;28;20809;-70
2020/12/08 05:17:27;;;;;;;19.73;15.07;;;4.00;99.90;;;;;;5092811;28;20438;-70
2020/12/08 05:20:07;;;;;;;21.33;14.07;;;4.10;99.90;;;;;;5092391;28;20434;-70
2020/12/08 05:22:33;;;;;;;21.60;14.37;;;4.10;99.90;;;;;;5090892;28;20762;-70
2020/12/08 05:25:09;;;;;;;21.27;16.30;;;4.10;99.90;;;;;;5091045;28;20439;-70
2020/12/08 05:27:35;;;;;;;19.87;13.63;;;4.20;99.90;;;;;;5090365;28;20435;-70
2020/12/08 05:30:08;;;;;;;23.37;15.57;;;4.20;99.90;;;;;;5090813;28;21093;-70
2020/12/08 05:32:41;;;;;;;21.30;14.87;;;4.30;99.90;;;;;;5090112;28;20431;-70
2020/12/08 05:35:09;;;;;;;20.23;14.70;;;4.20;99.90;;;;;;5091058;28;20458;-70
2020/12/08 05:37:40;;;;;;;23.50;15.93;;;4.30;99.90;;;;;;5089857;28;20431;-70
2020/12/08 05:40:26;;;;;;;22.90;15.37;;;4.30;99.90;;;;;;5085809;28;20450;-70
2020/12/08 05:42:53;;;;;;;19.00;13.90;;;4.40;99.90;;;;;;5093153;28;20427;-70
2020/12/08 05:45:23;;;;;;;20.60;14.57;;;4.40;99.90;;;;;;5090335;28;20854;-70
2020/12/08 05:47:59;;;;;;;19.70;14.33;;;4.40;99.90;;;;;;5091265;28;20427;-70
2020/12/08 05:50:26;;;;;;;19.63;14.10;;;4.40;99.90;;;;;;5091254;28;20541;-71
2020/12/08 05:52:58;;;;;;;23.40;15.43;;;4.40;99.90;;;;;;5090842;28;20489;-70
2020/12/08 05:55:31;;;;;;;19.07;14.37;;;4.40;99.90;;;;;;5091576;28;20845;-70
2020/12/08 05:58:09;;;;;;;21.10;13.87;;;4.40;99.90;;;;;;5089598;28;20442;-70
2020/12/08 06:00:37;;;;;;;21.17;14.77;;;4.40;99.90;;;;;;5089854;28;20443;-70
2020/12/08 06:03:16;;;;;;;20.73;15.97;;;4.50;99.90;;;;;;5091027;28;20427;-71
2020/12/08 06:05:44;;;;;;;23.80;17.43;;;4.50;99.90;;;;;;5091239;28;20438;-70
2020/12/08 06:08:20;;;;;;;26.63;16.93;;;4.50;99.90;;;;;;5088692;28;20534;-70
2020/12/08 06:10:51;;;;;;;21.50;14.53;;;4.50;99.90;;;;;;5087628;28;20451;-70
2020/12/08 06:13:28;;;;;;;20.83;16.10;;;4.40;99.90;;;;;;5091215;28;20951;-70
2020/12/08 06:15:54;;;;;;;28.93;17.07;;;4.30;99.90;;;;;;5091376;28;20466;-70
2020/12/08 06:18:31;;;;;;;23.47;15.97;;;4.20;99.90;;;;;;5091874;28;20445;-70
2020/12/08 06:21:04;;;;;;;30.40;19.00;;;4.20;99.90;;;;;;5090772;28;20476;-70
2020/12/08 06:23:31;;;;;;;21.57;15.87;;;4.10;99.90;;;;;;5091377;28;20578;-70
2020/12/08 06:26:00;;;;;;;20.47;14.70;;;4.10;99.90;;;;;;5091763;28;20419;-70
2020/12/08 06:28:26;;;;;;;19.30;14.03;;;4.10;99.90;;;;;;5089962;28;20439;-70
2020/12/08 06:31:08;;;;;;;21.60;14.93;;;4.00;99.90;;;;;;5094097;28;20457;-70
2020/12/08 06:33:45;;;;;;;17.33;12.90;;;3.90;99.90;;;;;;5092851;28;20176;-70
2020/12/08 06:36:11;;;;;;;18.70;13.20;;;3.90;99.90;;;;;;5094410;28;20538;-70
2020/12/08 06:38:37;;;;;;;17.10;12.93;;;3.90;99.90;;;;;;5089874;28;20424;-70
2020/12/08 06:41:03;;;;;;;17.17;12.60;;;3.80;99.90;;;;;;5094042;28;20437;-70
2020/12/08 06:43:28;;;;;;;16.40;10.30;;;3.80;99.90;;;;;;5092732;28;20214;-70
2020/12/08 06:46:08;;;;;;;15.80;11.60;;;3.80;99.90;;;;;;5094753;28;20184;-70
2020/12/08 06:48:35;;;;;;;15.17;11.80;;;3.80;99.90;;;;;;5094384;28;20222;-70
2020/12/08 06:51:01;;;;;;;15.90;10.53;;;3.80;99.90;;;;;;5095193;28;20911;-70
2020/12/08 06:53:27;;;;;;;14.13;10.80;;;3.80;99.90;;;;;;5094558;28;20928;-70
2020/12/08 06:55:53;;;;;;;13.80;10.20;;;3.80;99.90;;;;;;5094660;28;20457;-70
2020/12/08 06:58:19;;;;;;;13.83;11.40;;;3.80;99.90;;;;;;5092638;28;20181;-70
2020/12/08 07:00:45;;;;;;;14.87;9.80;;;3.80;99.90;;;;;;5093455;28;20207;-70
2020/12/08 07:03:12;;;;;;;11.80;9.10;;;3.80;99.90;;;;;;5093932;28;20510;-70
2020/12/08 07:05:39;;;;;;;15.10;9.73;;;3.70;99.90;;;;;;5094302;28;20419;-70
2020/12/08 07:08:06;;;;;;;15.53;11.10;;;3.70;99.90;;;;;;5093298;28;20427;-70
2020/12/08 07:10:39;;;;;;;13.07;9.63;;;3.60;99.90;;;;;;5093059;28;21021;-70
2020/12/08 07:13:14;;;;;;;13.07;10.10;;;3.70;99.90;;;;;;5085806;28;20948;-70
2020/12/08 07:15:40;;;;;;;12.80;9.00;;;3.70;99.90;;;;;;5091791;28;20537;-70
2020/12/08 07:18:08;;;;;;;12.67;9.93;;;3.80;99.90;;;;;;5092923;28;20421;-70
2020/12/08 07:20:35;;;;;;;10.53;8.50;;;3.80;99.90;;;;;;5094588;28;20438;-70
2020/12/08 07:23:04;;;;;;;14.40;9.80;;;3.80;99.90;;;;;;5092586;28;21046;-70
2020/12/08 07:25:31;;;;;;;12.17;8.60;;;3.90;99.90;;;;;;5094812;28;20981;-70
2020/12/08 07:27:57;;;;;;;11.90;8.20;;;3.80;99.90;;;;;;5094017;28;20427;-70
2020/12/08 07:30:25;;;;;;;10.10;8.07;;;3.80;99.90;;;;;;5094327;28;20442;-69
2020/12/08 07:32:52;;;;;;;13.07;9.20;;;3.80;99.90;;;;;;5094435;28;20446;-69
2020/12/08 07:35:25;;;;;;;12.97;9.70;;;3.80;99.90;;;;;;5094518;28;20507;-69
2020/12/08 07:37:58;;;;;;;9.97;8.07;;;3.80;99.90;;;;;;5087990;28;20435;-69
2020/12/08 07:40:36;;;;;;;11.37;9.73;;;3.90;99.90;;;;;;5091759;28;20447;-69
2020/12/08 07:43:02;;;;;;;13.70;10.23;;;3.80;99.90;;;;;;5092087;28;20426;-69
2020/12/08 07:45:29;;;;;;;10.03;8.50;;;3.90;99.90;;;;;;5093410;28;20424;-69
2020/12/08 07:47:58;;;;;;;10.50;8.67;;;3.90;99.90;;;;;;5093169;28;20423;-69
2020/12/08 07:50:28;;;;;;;10.37;8.60;;;3.90;99.90;;;;;;5093137;28;20473;-69
2020/12/08 07:52:55;;;;;;;11.33;8.20;;;4.00;99.90;;;;;;5092159;28;20430;-69
2020/12/08 07:55:21;;;;;;;12.43;8.63;;;4.10;99.90;;;;;;5093643;28;20450;-69
2020/12/08 07:57:46;;;;;;;11.47;9.77;;;4.00;99.90;;;;;;5092448;28;20458;-69
2020/12/08 08:00:12;;;;;;;13.17;9.27;;;4.00;99.90;;;;;;5093281;28;20662;-70
2020/12/08 08:02:37;;;;;;;13.40;9.33;;;4.00;99.90;;;;;;5091636;28;20174;-70
2020/12/08 08:05:03;;;;;;;13.30;10.70;;;4.10;99.90;;;;;;5093461;28;20182;-70
2020/12/08 08:07:28;;;;;;;13.43;10.00;;;4.00;99.90;;;;;;5093476;28;20177;-69
2020/12/08 08:09:54;;;;;;;12.57;9.70;;;4.10;99.90;;;;;;5092454;28;20200;-69
2020/12/08 08:12:20;;;;;;;11.40;9.07;;;4.10;99.90;;;;;;5093468;28;20666;-69
2020/12/08 08:14:45;;;;;;;15.80;10.53;;;4.10;99.90;;;;;;5090402;28;20256;-69
2020/12/08 08:17:11;;;;;;;15.80;10.53;;;4.10;99.90;;;;;;5087509;28;20302;-69
2020/12/08 08:19:36;;;;;;;14.57;10.93;;;4.10;99.90;;;;;;5093570;28;20196;-69
2020/12/08 08:22:03;;;;;;;18.53;11.57;;;4.10;99.90;;;;;;5092786;28;20200;-69
2020/12/08 08:24:29;;;;;;;13.17;10.83;;;4.10;99.90;;;;;;5093609;28;20658;-69
2020/12/08 08:26:55;;;;;;;13.80;11.63;;;4.10;99.90;;;;;;5091321;28;20426;-69
2020/12/08 08:29:22;;;;;;;15.97;12.00;;;4.10;99.90;;;;;;5093633;28;20197;-69
2020/12/08 08:31:47;;;;;;;16.10;12.40;;;4.10;99.90;;;;;;5092157;28;20438;-69
2020/12/08 08:34:13;;;;;;;18.00;12.70;;;4.20;99.90;;;;;;5092772;28;20434;-69
2020/12/08 08:36:49;;;;;;;17.07;12.57;;;4.20;99.90;;;;;;5089581;28;20455;-69
2020/12/08 08:39:15;;;;;;;22.70;13.17;;;4.20;99.90;;;;;;5090817;28;20576;-69
2020/12/08 08:41:40;;;;;;;18.43;13.20;;;4.20;99.90;;;;;;5092344;28;20431;-69
2020/12/08 08:44:06;;;;;;;17.60;12.57;;;4.20;99.90;;;;;;5092765;28;20165;-69
2020/12/08 08:46:32;;;;;;;30.43;14.20;;;4.10;99.90;;;;;;5091392;28;20201;-69
2020/12/08 08:48:57;;;;;;;18.00;12.50;;;4.20;99.90;;;;;;5091812;28;20243;-69
2020/12/08 08:51:23;;;;;;;18.80;13.67;;;4.20;99.90;;;;;;5092193;28;20185;-69
2020/12/08 08:53:49;;;;;;;21.07;13.93;;;4.20;99.90;;;;;;5091564;28;20187;-69
2020/12/08 08:56:18;;;;;;;18.93;14.17;;;4.30;99.90;;;;;;5092133;28;20201;-69
2020/12/08 08:58:43;;;;;;;17.53;12.63;;;4.40;99.90;;;;;;5092183;28;20252;-69
2020/12/08 09:01:09;;;;;;;16.50;12.93;;;4.40;99.90;;;;;;5090868;28;20509;-69
2020/12/08 09:03:36;;;;;;;21.20;15.30;;;4.40;99.90;;;;;;5092461;28;20189;-69
2020/12/08 09:06:01;;;;;;;20.10;13.00;;;4.50;99.90;;;;;;5090709;28;20962;-69
2020/12/08 09:08:27;;;;;;;20.63;14.97;;;4.60;99.90;;;;;;5092486;28;20459;-69
2020/12/08 09:10:53;;;;;;;19.53;14.37;;;4.60;99.90;;;;;;5091689;28;20579;-69
2020/12/08 09:13:19;;;;;;;16.23;13.37;;;4.70;99.90;;;;;;5092041;28;20188;-69
2020/12/08 09:15:45;;;;;;;19.37;14.17;;;4.70;99.90;;;;;;5092269;28;20546;-69
2020/12/08 09:18:11;;;;;;;18.90;14.30;;;4.80;99.90;;;;;;5089936;28;20219;-69
2020/12/08 09:20:37;;;;;;;18.27;13.60;;;4.80;99.90;;;;;;5084686;28;20442;-69
2020/12/08 09:23:03;;;;;;;19.33;14.23;;;4.80;99.90;;;;;;5091950;28;21126;-69
2020/12/08 09:25:28;;;;;;;20.20;13.50;;;4.80;99.90;;;;;;5091852;28;20273;-69
2020/12/08 09:27:55;;;;;;;18.17;12.30;;;4.90;99.90;;;;;;5087752;28;20264;-69
2020/12/08 09:30:22;;;;;;;19.63;14.40;;;4.80;99.90;;;;;;5090179;28;20237;-69
2020/12/08 09:32:48;;;;;;;20.03;13.33;;;4.70;99.90;;;;;;5090627;28;20921;-69
2020/12/08 09:35:15;;;;;;;16.70;12.50;;;4.80;99.90;;;;;;5090109;28;20464;-69
2020/12/08 09:37:41;;;;;;;20.47;14.33;;;4.90;99.90;;;;;;5090020;28;20432;-70
2020/12/08 09:40:07;;;;;;;17.30;13.27;;;5.00;99.90;;;;;;5090503;28;20802;-69
2020/12/08 09:42:32;;;;;;;22.33;15.00;;;5.10;99.90;;;;;;5092151;28;20497;-69
2020/12/08 09:44:58;;;;;;;17.13;12.03;;;5.20;99.90;;;;;;5086091;28;20556;-69
2020/12/08 09:47:24;;;;;;;18.30;13.73;;;5.30;99.90;;;;;;5088182;28;20635;-69
2020/12/08 09:49:49;;;;;;;21.23;13.80;;;5.40;99.90;;;;;;5083920;28;20296;-69
2020/12/08 09:52:15;;;;;;;17.83;11.60;;;5.50;99.90;;;;;;5084281;28;20185;-69
2020/12/08 09:54:41;;;;;;;19.00;12.90;;;5.80;99.90;;;;;;5088660;28;20653;-69
2020/12/08 09:57:06;;;;;;;20.00;12.50;;;6.00;99.90;;;;;;5084211;28;20177;-69
2020/12/08 09:59:32;;;;;;;14.40;11.23;;;6.20;99.90;;;;;;5083896;28;20208;-69
2020/12/08 10:02:02;;;;;;;14.57;11.30;;;6.40;99.90;;;;;;5082659;28;20174;-69
2020/12/08 10:04:27;;;;;;;20.43;12.13;;;6.70;99.90;;;;;;5100319;28;20173;-69
2020/12/08 10:06:53;;;;;;;14.97;10.60;;;7.00;99.90;;;;;;5090026;28;20425;-69
2020/12/08 10:09:19;;;;;;;15.53;10.77;;;7.10;99.90;;;;;;5090815;28;20626;-69
2020/12/08 10:11:44;;;;;;;13.40;11.00;;;7.20;99.90;;;;;;5091294;28;20260;-69
2020/12/08 10:14:10;;;;;;;14.67;11.20;;;7.30;99.90;;;;;;5091099;28;20684;-69
2020/12/08 10:16:36;;;;;;;12.47;11.17;;;7.50;99.90;;;;;;5090157;28;20209;-69
2020/12/08 10:19:01;;;;;;;16.13;12.33;;;7.30;99.90;;;;;;5091176;28;20220;-69
2020/12/08 10:21:27;;;;;;;19.43;13.97;;;7.10;99.90;;;;;;5091014;28;20170;-69
2020/12/08 10:23:53;;;;;;;15.90;12.67;;;7.00;99.90;;;;;;5083928;28;20174;-69
2020/12/08 10:26:20;;;;;;;14.87;11.77;;;6.90;99.90;;;;;;5090457;28;20776;-69
2020/12/08 10:28:46;;;;;;;13.27;11.60;;;6.80;99.90;;;;;;5091276;28;20174;-69
2020/12/08 10:31:14;;;;;;;14.40;10.20;;;6.70;99.90;;;;;;5090682;28;20428;-69
2020/12/08 10:33:39;;;;;;;17.20;10.90;;;6.80;99.90;;;;;;5091487;28;20916;-69
2020/12/08 10:36:07;;;;;;;14.87;11.60;;;6.80;99.90;;;;;;5091484;28;20451;-69
2020/12/08 10:38:32;;;;;;;12.87;9.47;;;6.80;99.90;;;;;;5091747;28;20173;-69
2020/12/08 10:40:58;;;;;;;18.50;11.00;;;6.80;99.90;;;;;;5090900;28;20434;-69
2020/12/08 10:43:24;;;;;;;13.80;11.03;;;6.80;99.90;;;;;;5091657;28;20638;-69
2020/12/08 10:45:49;;;;;;;16.23;9.20;;;6.70;99.90;;;;;;5091419;28;20185;-69
2020/12/08 10:48:15;;;;;;;12.57;8.60;;;6.50;99.90;;;;;;5091477;28;20185;-69
2020/12/08 10:50:43;;;;;;;12.50;10.13;;;6.40;99.90;;;;;;5091100;28;20564;-69
2020/12/08 10:53:08;;;;;;;15.77;10.27;;;6.40;99.90;;;;;;5091164;28;20442;-69
2020/12/08 10:55:35;;;;;;;13.87;10.30;;;6.20;99.90;;;;;;5091586;28;20451;-69
2020/12/08 10:58:02;;;;;;;16.00;10.70;;;6.30;99.90;;;;;;5090735;28;20471;-69
2020/12/08 11:00:28;;;;;;;13.37;10.10;;;6.30;99.90;;;;;;5091132;28;20442;-69
2020/12/08 11:02:54;;;;;;;13.20;10.93;;;6.30;99.90;;;;;;5090721;28;20419;-69
2020/12/08 11:05:20;;;;;;;13.40;10.33;;;6.40;99.90;;;;;;5091365;28;20472;-69
2020/12/08 11:07:45;;;;;;;16.33;11.40;;;6.50;99.90;;;;;;5091146;28;20188;-69
2020/12/08 11:10:11;;;;;;;16.70;9.87;;;6.50;99.90;;;;;;5090858;28;20217;-69
2020/12/08 11:12:36;;;;;;;13.07;9.43;;;6.50;99.90;;;;;;5090756;28;20694;-69
2020/12/08 11:15:03;;;;;;;13.27;10.00;;;6.50;99.90;;;;;;5091120;28;20242;-70
2020/12/08 11:17:31;;;;;;;12.03;9.50;;;6.60;99.90;;;;;;5095086;28;20169;-69
2020/12/08 11:19:56;;;;;;;11.87;9.53;;;6.80;99.90;;;;;;5094693;28;20493;-69
2020/12/08 11:22:22;;;;;;;13.03;11.63;;;7.10;99.90;;;;;;5094005;28;20428;-69
2020/12/08 11:24:47;;;;;;;12.30;9.23;;;7.30;99.90;;;;;;5094912;28;20174;-69
2020/12/08 11:27:19;;;;;;;13.00;9.77;;;7.40;99.90;;;;;;5094847;28;20700;-69
2020/12/08 11:29:46;;;;;;;12.77;9.40;;;7.40;99.90;;;;;;5094473;28;20197;-69
2020/12/08 11:32:14;;;;;;;10.23;9.10;;;7.10;99.90;;;;;;5094233;28;20443;-69
2020/12/08 11:34:39;;;;;;;13.23;9.97;;;7.20;99.90;;;;;;5094670;28;20423;-69
2020/12/08 11:37:06;;;;;;;12.90;9.03;;;7.10;99.90;;;;;;5094469;28;20537;-69
2020/12/08 11:39:31;;;;;;;15.47;10.47;;;6.90;99.90;;;;;;5094736;28;20251;-69
2020/12/08 11:41:57;;;;;;;11.93;10.20;;;6.90;99.90;;;;;;5094124;28;20839;-69
2020/12/08 11:44:23;;;;;;;15.30;10.50;;;6.90;99.90;;;;;;5094566;28;20188;-69
2020/12/08 11:46:50;;;;;;;12.70;9.37;;;7.00;99.90;;;;;;5094201;28;20248;-69
2020/12/08 11:49:16;;;;;;;12.10;9.30;;;7.00;99.90;;;;;;5094261;28;20209;-69
2020/12/08 11:51:42;;;;;;;14.10;9.77;;;7.10;99.90;;;;;;5093836;28;20428;-69
2020/12/08 11:54:07;;;;;;;12.80;9.67;;;7.10;99.90;;;;;;5093879;28;20739;-69
2020/12/08 11:56:33;;;;;;;13.73;9.93;;;6.90;99.90;;;;;;5093736;28;20197;-69
2020/12/08 11:58:58;;;;;;;11.40;9.10;;;6.90;99.90;;;;;;5093295;28;20702;-69
2020/12/08 12:01:24;;;;;;;10.57;8.70;;;6.80;99.90;;;;;;5093602;28;20178;-69
2020/12/08 12:03:50;;;;;;;12.43;8.57;;;6.90;99.90;;;;;;5094105;28;20227;-69
2020/12/08 12:06:15;;;;;;;14.73;9.97;;;6.70;99.90;;;;;;5093983;28;20178;-69
2020/12/08 12:08:41;;;;;;;13.30;10.80;;;6.70;99.90;;;;;;5093554;28;20174;-69
2020/12/08 12:11:07;;;;;;;15.67;10.03;;;6.50;99.90;;;;;;5093695;28;20174;-69
2020/12/08 12:13:33;;;;;;;12.80;9.47;;;6.60;99.90;;;;;;5093694;28;20265;-69
2020/12/08 12:15:59;;;;;;;11.20;8.90;;;6.40;99.90;;;;;;5093703;28;20494;-69
2020/12/08 12:18:24;;;;;;;11.90;10.70;;;6.50;99.90;;;;;;5093800;28;20540;-69
2020/12/08 12:20:50;;;;;;;12.20;9.77;;;6.50;99.90;;;;;;5093289;28;20289;-69
2020/12/08 12:23:16;;;;;;;11.77;9.53;;;6.50;99.90;;;;;;5093557;28;20174;-69
2020/12/08 12:25:41;;;;;;;12.93;10.30;;;6.40;99.90;;;;;;5093575;28;20199;-69
2020/12/08 12:28:07;;;;;;;14.43;10.67;;;6.50;99.90;;;;;;5092862;28;20223;-69
2020/12/08 12:30:33;;;;;;;12.60;9.73;;;6.50;99.90;;;;;;5092952;28;20202;-69
2020/12/08 12:32:59;;;;;;;13.00;11.33;;;6.50;99.90;;;;;;5093329;28;20427;-69
2020/12/08 12:35:24;;;;;;;12.83;11.07;;;6.60;99.90;;;;;;5093334;28;20200;-69
2020/12/08 12:37:50;;;;;;;12.30;10.90;;;6.70;99.90;;;;;;5093002;28;20256;-69